sensor_id;sensor_type;location;lat;lon;timestamp;P1;durP1;ratioP1;P2;durP2;ratioP2
18072;SDS011;9161;47.348;9.648;2022-07-29T00:02:59;0.70;;;0.57;;
18072;SDS011;9161;47.348;9.648;2022-07-29T00:07:43;2.88;;;0.65;;
18072;SDS011;9161;47.348;9.648;2022-07-29T00:12:26;1.52;;;0.73;;
18072;SDS011;9161;47.348;9.648;2022-07-29T00:17:11;1.15;;;0.70;;
18072;SDS011;9161;47.348;9.648;2022-07-29T00:21:59;1.55;;;0.95;;
18072;SDS011;9161;47.348;9.648;2022-07-29T00:26:43;0.77;;;0.65;;
18072;SDS011;9161;47.348;9.648;2022-07-29T00:31:26;0.70;;;0.70;;
18072;SDS011;9161;47.348;9.648;2022-07-29T00:36:11;0.98;;;0.63;;
18072;SDS011;9161;47.348;9.648;2022-07-29T00:40:55;1.38;;;0.70;;
18072;SDS011;9161;47.348;9.648;2022-07-29T00:45:38;0.80;;;0.60;;
18072;SDS011;9161;47.348;9.648;2022-07-29T00:50:22;0.90;;;0.70;;
18072;SDS011;9161;47.348;9.648;2022-07-29T00:55:08;1.05;;;0.75;;
18072;SDS011;9161;47.348;9.648;2022-07-29T00:59:53;2.50;;;1.08;;
18072;SDS011;9161;47.348;9.648;2022-07-29T01:04:37;1.48;;;1.00;;
18072;SDS011;9161;47.348;9.648;2022-07-29T01:09:21;2.40;;;1.00;;
18072;SDS011;9161;47.348;9.648;2022-07-29T01:14:27;1.77;;;1.00;;
18072;SDS011;9161;47.348;9.648;2022-07-29T01:19:13;1.60;;;0.80;;
18072;SDS011;9161;47.348;9.648;2022-07-29T01:24:14;1.85;;;0.98;;
18072;SDS011;9161;47.348;9.648;2022-07-29T01:29:15;1.75;;;0.80;;
18072;SDS011;9161;47.348;9.648;2022-07-29T01:34:05;4.00;;;0.77;;
18072;SDS011;9161;47.348;9.648;2022-07-29T01:38:54;1.00;;;0.80;;
18072;SDS011;9161;47.348;9.648;2022-07-29T01:43:49;1.92;;;0.80;;
18072;SDS011;9161;47.348;9.648;2022-07-29T01:48:39;0.90;;;0.70;;
18072;SDS011;9161;47.348;9.648;2022-07-29T01:53:26;4.97;;;1.35;;
18072;SDS011;9161;47.348;9.648;2022-07-29T01:58:18;0.97;;;0.90;;
18072;SDS011;9161;47.348;9.648;2022-07-29T02:03:05;1.17;;;0.90;;
18072;SDS011;9161;47.348;9.648;2022-07-29T02:07:54;1.43;;;1.00;;
18072;SDS011;9161;47.348;9.648;2022-07-29T02:12:40;2.15;;;1.30;;
18072;SDS011;9161;47.348;9.648;2022-07-29T02:17:32;3.58;;;1.38;;
18072;SDS011;9161;47.348;9.648;2022-07-29T02:22:21;2.38;;;1.20;;
18072;SDS011;9161;47.348;9.648;2022-07-29T02:27:07;1.42;;;1.00;;
18072;SDS011;9161;47.348;9.648;2022-07-29T02:31:52;1.90;;;0.90;;
18072;SDS011;9161;47.348;9.648;2022-07-29T02:36:37;1.48;;;0.82;;
18072;SDS011;9161;47.348;9.648;2022-07-29T02:41:23;3.78;;;0.80;;
18072;SDS011;9161;47.348;9.648;2022-07-29T02:46:13;1.73;;;0.85;;
18072;SDS011;9161;47.348;9.648;2022-07-29T02:51:11;1.75;;;0.80;;
18072;SDS011;9161;47.348;9.648;2022-07-29T02:56:23;3.13;;;0.90;;
18072;SDS011;9161;47.348;9.648;2022-07-29T03:01:11;1.63;;;0.90;;
18072;SDS011;9161;47.348;9.648;2022-07-29T03:06:02;1.30;;;1.00;;
18072;SDS011;9161;47.348;9.648;2022-07-29T03:10:47;1.27;;;1.00;;
18072;SDS011;9161;47.348;9.648;2022-07-29T03:15:31;2.60;;;1.07;;
18072;SDS011;9161;47.348;9.648;2022-07-29T03:20:17;3.73;;;1.20;;
18072;SDS011;9161;47.348;9.648;2022-07-29T03:25:07;1.57;;;1.10;;
18072;SDS011;9161;47.348;9.648;2022-07-29T03:29:51;1.43;;;1.10;;
18072;SDS011;9161;47.348;9.648;2022-07-29T03:34:35;3.77;;;1.20;;
18072;SDS011;9161;47.348;9.648;2022-07-29T03:39:22;1.73;;;0.90;;
18072;SDS011;9161;47.348;9.648;2022-07-29T03:44:08;2.23;;;1.17;;
18072;SDS011;9161;47.348;9.648;2022-07-29T03:48:54;2.37;;;1.20;;
18072;SDS011;9161;47.348;9.648;2022-07-29T03:53:41;2.40;;;1.10;;
18072;SDS011;9161;47.348;9.648;2022-07-29T03:58:27;2.00;;;1.10;;
18072;SDS011;9161;47.348;9.648;2022-07-29T04:03:13;2.47;;;1.03;;
18072;SDS011;9161;47.348;9.648;2022-07-29T04:07:57;1.03;;;0.87;;
18072;SDS011;9161;47.348;9.648;2022-07-29T04:12:41;2.90;;;1.20;;
18072;SDS011;9161;47.348;9.648;2022-07-29T04:17:26;1.80;;;1.60;;
18072;SDS011;9161;47.348;9.648;2022-07-29T04:22:10;2.50;;;1.40;;
18072;SDS011;9161;47.348;9.648;2022-07-29T04:26:53;2.17;;;1.20;;
18072;SDS011;9161;47.348;9.648;2022-07-29T04:31:37;2.17;;;1.10;;
18072;SDS011;9161;47.348;9.648;2022-07-29T04:36:24;8.37;;;1.07;;
18072;SDS011;9161;47.348;9.648;2022-07-29T04:41:10;1.30;;;0.97;;
18072;SDS011;9161;47.348;9.648;2022-07-29T04:45:54;2.23;;;1.17;;
18072;SDS011;9161;47.348;9.648;2022-07-29T04:50:38;1.40;;;1.00;;
18072;SDS011;9161;47.348;9.648;2022-07-29T04:55:23;1.10;;;0.90;;
18072;SDS011;9161;47.348;9.648;2022-07-29T05:00:08;1.92;;;1.15;;
18072;SDS011;9161;47.348;9.648;2022-07-29T05:04:52;4.20;;;1.45;;
18072;SDS011;9161;47.348;9.648;2022-07-29T05:09:36;1.77;;;0.90;;
18072;SDS011;9161;47.348;9.648;2022-07-29T05:14:21;2.43;;;1.00;;
18072;SDS011;9161;47.348;9.648;2022-07-29T05:19:04;1.77;;;1.10;;
18072;SDS011;9161;47.348;9.648;2022-07-29T05:23:54;1.20;;;0.90;;
18072;SDS011;9161;47.348;9.648;2022-07-29T05:28:38;1.57;;;0.80;;
18072;SDS011;9161;47.348;9.648;2022-07-29T05:33:23;1.43;;;1.10;;
18072;SDS011;9161;47.348;9.648;2022-07-29T05:38:17;1.73;;;1.10;;
18072;SDS011;9161;47.348;9.648;2022-07-29T05:43:00;3.47;;;0.90;;
18072;SDS011;9161;47.348;9.648;2022-07-29T05:47:44;3.17;;;1.20;;
18072;SDS011;9161;47.348;9.648;2022-07-29T05:52:29;1.90;;;0.77;;
18072;SDS011;9161;47.348;9.648;2022-07-29T05:57:16;3.07;;;1.10;;
18072;SDS011;9161;47.348;9.648;2022-07-29T06:01:59;1.30;;;1.03;;
18072;SDS011;9161;47.348;9.648;2022-07-29T06:06:43;1.70;;;1.10;;
18072;SDS011;9161;47.348;9.648;2022-07-29T06:11:28;1.27;;;1.17;;
18072;SDS011;9161;47.348;9.648;2022-07-29T06:16:12;2.00;;;1.00;;
18072;SDS011;9161;47.348;9.648;2022-07-29T06:21:10;2.50;;;0.90;;
18072;SDS011;9161;47.348;9.648;2022-07-29T06:25:54;1.53;;;0.97;;
18072;SDS011;9161;47.348;9.648;2022-07-29T06:30:39;2.93;;;1.33;;
18072;SDS011;9161;47.348;9.648;2022-07-29T06:35:23;1.67;;;1.20;;
18072;SDS011;9161;47.348;9.648;2022-07-29T06:40:22;4.40;;;1.20;;
18072;SDS011;9161;47.348;9.648;2022-07-29T06:45:23;3.87;;;1.30;;
18072;SDS011;9161;47.348;9.648;2022-07-29T06:50:10;1.70;;;1.20;;
18072;SDS011;9161;47.348;9.648;2022-07-29T06:54:53;3.43;;;1.30;;
18072;SDS011;9161;47.348;9.648;2022-07-29T06:59:37;3.17;;;1.10;;
18072;SDS011;9161;47.348;9.648;2022-07-29T07:04:20;1.80;;;1.00;;
18072;SDS011;9161;47.348;9.648;2022-07-29T07:09:05;2.03;;;1.30;;
18072;SDS011;9161;47.348;9.648;2022-07-29T07:13:49;1.50;;;1.10;;
18072;SDS011;9161;47.348;9.648;2022-07-29T07:18:33;1.30;;;1.00;;
18072;SDS011;9161;47.348;9.648;2022-07-29T07:23:16;1.23;;;1.00;;
18072;SDS011;9161;47.348;9.648;2022-07-29T07:28:02;2.65;;;1.38;;
18072;SDS011;9161;47.348;9.648;2022-07-29T07:32:46;1.55;;;1.13;;
18072;SDS011;9161;47.348;9.648;2022-07-29T07:37:29;2.05;;;1.20;;
18072;SDS011;9161;47.348;9.648;2022-07-29T07:42:14;3.58;;;1.27;;
18072;SDS011;9161;47.348;9.648;2022-07-29T07:46:59;8.82;;;1.40;;
18072;SDS011;9161;47.348;9.648;2022-07-29T07:51:50;2.92;;;1.23;;
18072;SDS011;9161;47.348;9.648;2022-07-29T07:56:34;1.95;;;1.25;;
18072;SDS011;9161;47.348;9.648;2022-07-29T08:01:17;2.35;;;1.17;;
18072;SDS011;9161;47.348;9.648;2022-07-29T08:06:06;1.73;;;1.30;;
18072;SDS011;9161;47.348;9.648;2022-07-29T08:10:50;2.63;;;1.30;;
18072;SDS011;9161;47.348;9.648;2022-07-29T08:15:38;2.28;;;1.50;;
18072;SDS011;9161;47.348;9.648;2022-07-29T08:20:23;4.63;;;1.70;;
18072;SDS011;9161;47.348;9.648;2022-07-29T08:25:08;3.70;;;1.80;;
18072;SDS011;9161;47.348;9.648;2022-07-29T08:29:57;2.85;;;1.40;;
18072;SDS011;9161;47.348;9.648;2022-07-29T08:34:40;3.55;;;1.50;;
18072;SDS011;9161;47.348;9.648;2022-07-29T08:39:26;3.30;;;1.52;;
18072;SDS011;9161;47.348;9.648;2022-07-29T08:44:11;3.47;;;1.50;;
18072;SDS011;9161;47.348;9.648;2022-07-29T08:48:55;6.47;;;1.90;;
18072;SDS011;9161;47.348;9.648;2022-07-29T08:53:40;4.80;;;1.92;;
18072;SDS011;9161;47.348;9.648;2022-07-29T08:58:25;5.55;;;2.00;;
18072;SDS011;9161;47.348;9.648;2022-07-29T09:03:20;4.40;;;1.92;;
18072;SDS011;9161;47.348;9.648;2022-07-29T09:08:07;4.05;;;1.80;;
18072;SDS011;9161;47.348;9.648;2022-07-29T09:12:53;3.90;;;1.90;;
18072;SDS011;9161;47.348;9.648;2022-07-29T09:17:40;3.17;;;1.83;;
18072;SDS011;9161;47.348;9.648;2022-07-29T09:22:29;4.63;;;2.20;;
18072;SDS011;9161;47.348;9.648;2022-07-29T09:27:21;4.28;;;1.90;;
18072;SDS011;9161;47.348;9.648;2022-07-29T09:32:08;4.70;;;1.80;;
18072;SDS011;9161;47.348;9.648;2022-07-29T09:36:53;2.83;;;1.92;;
18072;SDS011;9161;47.348;9.648;2022-07-29T09:41:47;3.03;;;1.92;;
18072;SDS011;9161;47.348;9.648;2022-07-29T09:46:34;2.45;;;1.52;;
18072;SDS011;9161;47.348;9.648;2022-07-29T09:51:18;6.22;;;2.22;;
18072;SDS011;9161;47.348;9.648;2022-07-29T09:56:10;4.18;;;2.15;;
18072;SDS011;9161;47.348;9.648;2022-07-29T10:00:57;3.33;;;2.30;;
18072;SDS011;9161;47.348;9.648;2022-07-29T10:05:41;4.78;;;2.28;;
18072;SDS011;9161;47.348;9.648;2022-07-29T10:10:25;3.72;;;2.20;;
18072;SDS011;9161;47.348;9.648;2022-07-29T10:15:09;4.82;;;2.40;;
18072;SDS011;9161;47.348;9.648;2022-07-29T10:19:54;5.10;;;2.00;;
18072;SDS011;9161;47.348;9.648;2022-07-29T10:24:39;6.78;;;2.25;;
18072;SDS011;9161;47.348;9.648;2022-07-29T10:29:22;3.30;;;2.08;;
18072;SDS011;9161;47.348;9.648;2022-07-29T10:34:07;2.97;;;1.58;;
18072;SDS011;9161;47.348;9.648;2022-07-29T10:39:05;5.70;;;2.10;;
18072;SDS011;9161;47.348;9.648;2022-07-29T10:44:03;2.92;;;1.60;;
18072;SDS011;9161;47.348;9.648;2022-07-29T10:54:07;4.22;;;1.70;;
18072;SDS011;9161;47.348;9.648;2022-07-29T11:04:17;5.72;;;4.15;;
18072;SDS011;9161;47.348;9.648;2022-07-29T11:09:40;3.38;;;1.42;;
18072;SDS011;9161;47.348;9.648;2022-07-29T11:19:39;1.88;;;1.60;;
18072;SDS011;9161;47.348;9.648;2022-07-29T11:24:32;5.35;;;1.50;;
18072;SDS011;9161;47.348;9.648;2022-07-29T11:29:20;1.80;;;1.10;;
18072;SDS011;9161;47.348;9.648;2022-07-29T11:34:21;2.58;;;1.42;;
18072;SDS011;9161;47.348;9.648;2022-07-29T11:39:25;3.40;;;1.42;;
18072;SDS011;9161;47.348;9.648;2022-07-29T11:49:44;2.55;;;1.35;;
18072;SDS011;9161;47.348;9.648;2022-07-29T11:54:30;1.70;;;1.60;;
18072;SDS011;9161;47.348;9.648;2022-07-29T11:59:38;1.65;;;1.35;;
18072;SDS011;9161;47.348;9.648;2022-07-29T12:04:25;1.55;;;1.38;;
18072;SDS011;9161;47.348;9.648;2022-07-29T12:09:09;3.67;;;1.40;;
18072;SDS011;9161;47.348;9.648;2022-07-29T12:13:55;2.35;;;1.02;;
18072;SDS011;9161;47.348;9.648;2022-07-29T12:18:38;1.55;;;1.10;;
18072;SDS011;9161;47.348;9.648;2022-07-29T12:23:24;1.48;;;1.10;;
18072;SDS011;9161;47.348;9.648;2022-07-29T12:28:15;1.20;;;1.10;;
18072;SDS011;9161;47.348;9.648;2022-07-29T12:33:12;1.30;;;1.20;;
18072;SDS011;9161;47.348;9.648;2022-07-29T12:37:57;3.42;;;1.50;;
18072;SDS011;9161;47.348;9.648;2022-07-29T12:42:43;1.48;;;1.20;;
18072;SDS011;9161;47.348;9.648;2022-07-29T12:47:51;1.98;;;1.30;;
18072;SDS011;9161;47.348;9.648;2022-07-29T12:52:35;4.43;;;1.42;;
18072;SDS011;9161;47.348;9.648;2022-07-29T12:57:19;2.63;;;1.40;;
18072;SDS011;9161;47.348;9.648;2022-07-29T13:02:05;30.35;;;3.30;;
18072;SDS011;9161;47.348;9.648;2022-07-29T13:06:49;5.35;;;1.30;;
18072;SDS011;9161;47.348;9.648;2022-07-29T13:11:46;5.30;;;1.63;;
18072;SDS011;9161;47.348;9.648;2022-07-29T13:16:32;3.60;;;1.30;;
18072;SDS011;9161;47.348;9.648;2022-07-29T13:21:17;18.10;;;2.00;;
18072;SDS011;9161;47.348;9.648;2022-07-29T13:26:07;7.78;;;1.45;;
18072;SDS011;9161;47.348;9.648;2022-07-29T13:30:53;3.58;;;1.25;;
18072;SDS011;9161;47.348;9.648;2022-07-29T13:35:37;2.47;;;1.45;;
18072;SDS011;9161;47.348;9.648;2022-07-29T13:40:22;4.07;;;1.70;;
18072;SDS011;9161;47.348;9.648;2022-07-29T13:45:07;7.65;;;2.00;;
18072;SDS011;9161;47.348;9.648;2022-07-29T13:49:53;7.15;;;1.83;;
18072;SDS011;9161;47.348;9.648;2022-07-29T13:54:37;16.35;;;2.05;;
18072;SDS011;9161;47.348;9.648;2022-07-29T13:59:24;21.90;;;3.00;;
18072;SDS011;9161;47.348;9.648;2022-07-29T14:04:08;3.83;;;1.52;;
18072;SDS011;9161;47.348;9.648;2022-07-29T14:08:53;6.15;;;1.75;;
18072;SDS011;9161;47.348;9.648;2022-07-29T14:13:37;4.13;;;1.45;;
18072;SDS011;9161;47.348;9.648;2022-07-29T14:18:22;3.33;;;1.42;;
18072;SDS011;9161;47.348;9.648;2022-07-29T14:23:06;12.65;;;1.58;;
18072;SDS011;9161;47.348;9.648;2022-07-29T14:27:49;2.78;;;1.60;;
18072;SDS011;9161;47.348;9.648;2022-07-29T14:32:34;6.13;;;1.92;;
18072;SDS011;9161;47.348;9.648;2022-07-29T14:37:20;3.47;;;2.00;;
18072;SDS011;9161;47.348;9.648;2022-07-29T14:42:03;3.72;;;1.92;;
18072;SDS011;9161;47.348;9.648;2022-07-29T14:46:47;5.22;;;2.20;;
18072;SDS011;9161;47.348;9.648;2022-07-29T14:51:31;5.18;;;2.80;;
18072;SDS011;9161;47.348;9.648;2022-07-29T14:56:16;8.23;;;3.00;;
18072;SDS011;9161;47.348;9.648;2022-07-29T15:01:17;5.03;;;2.88;;
18072;SDS011;9161;47.348;9.648;2022-07-29T15:06:01;4.38;;;2.70;;
18072;SDS011;9161;47.348;9.648;2022-07-29T15:10:45;3.63;;;2.70;;
18072;SDS011;9161;47.348;9.648;2022-07-29T15:15:30;5.10;;;2.70;;
18072;SDS011;9161;47.348;9.648;2022-07-29T15:20:13;4.83;;;3.37;;
18072;SDS011;9161;47.348;9.648;2022-07-29T15:24:57;5.95;;;2.95;;
18072;SDS011;9161;47.348;9.648;2022-07-29T15:29:41;3.45;;;2.70;;
18072;SDS011;9161;47.348;9.648;2022-07-29T15:34:27;5.60;;;3.13;;
18072;SDS011;9161;47.348;9.648;2022-07-29T15:39:10;4.80;;;3.00;;
18072;SDS011;9161;47.348;9.648;2022-07-29T15:43:54;4.22;;;3.15;;
18072;SDS011;9161;47.348;9.648;2022-07-29T15:48:38;4.87;;;3.10;;
18072;SDS011;9161;47.348;9.648;2022-07-29T15:53:23;6.32;;;2.72;;
18072;SDS011;9161;47.348;9.648;2022-07-29T15:58:07;4.90;;;3.00;;
18072;SDS011;9161;47.348;9.648;2022-07-29T16:02:54;5.78;;;3.15;;
18072;SDS011;9161;47.348;9.648;2022-07-29T16:07:37;5.28;;;3.20;;
18072;SDS011;9161;47.348;9.648;2022-07-29T16:12:22;9.25;;;5.50;;
18072;SDS011;9161;47.348;9.648;2022-07-29T16:17:06;7.50;;;5.07;;
18072;SDS011;9161;47.348;9.648;2022-07-29T16:21:54;6.90;;;4.88;;
18072;SDS011;9161;47.348;9.648;2022-07-29T16:26:40;7.45;;;5.05;;
18072;SDS011;9161;47.348;9.648;2022-07-29T16:31:25;7.38;;;4.22;;
18072;SDS011;9161;47.348;9.648;2022-07-29T16:36:09;7.70;;;5.00;;
18072;SDS011;9161;47.348;9.648;2022-07-29T16:40:55;5.40;;;4.10;;
18072;SDS011;9161;47.348;9.648;2022-07-29T16:45:39;6.60;;;3.78;;
18072;SDS011;9161;47.348;9.648;2022-07-29T16:50:28;6.72;;;3.97;;
18072;SDS011;9161;47.348;9.648;2022-07-29T16:55:12;5.57;;;3.40;;
18072;SDS011;9161;47.348;9.648;2022-07-29T16:59:57;4.88;;;2.97;;
18072;SDS011;9161;47.348;9.648;2022-07-29T17:04:41;4.93;;;3.53;;
18072;SDS011;9161;47.348;9.648;2022-07-29T17:09:38;7.20;;;4.38;;
18072;SDS011;9161;47.348;9.648;2022-07-29T17:14:23;6.63;;;4.17;;
18072;SDS011;9161;47.348;9.648;2022-07-29T17:19:08;7.57;;;4.70;;
18072;SDS011;9161;47.348;9.648;2022-07-29T17:23:52;5.72;;;3.95;;
18072;SDS011;9161;47.348;9.648;2022-07-29T17:28:38;4.78;;;3.38;;
18072;SDS011;9161;47.348;9.648;2022-07-29T17:33:22;4.80;;;3.25;;
18072;SDS011;9161;47.348;9.648;2022-07-29T17:38:06;6.45;;;3.88;;
18072;SDS011;9161;47.348;9.648;2022-07-29T17:42:50;5.47;;;3.97;;
18072;SDS011;9161;47.348;9.648;2022-07-29T17:47:37;6.67;;;4.20;;
18072;SDS011;9161;47.348;9.648;2022-07-29T17:52:24;5.77;;;3.20;;
18072;SDS011;9161;47.348;9.648;2022-07-29T17:57:07;6.03;;;3.13;;
18072;SDS011;9161;47.348;9.648;2022-07-29T18:01:51;4.80;;;3.10;;
18072;SDS011;9161;47.348;9.648;2022-07-29T18:06:37;6.40;;;2.70;;
18072;SDS011;9161;47.348;9.648;2022-07-29T18:11:21;4.07;;;3.10;;
18072;SDS011;9161;47.348;9.648;2022-07-29T18:16:05;4.37;;;3.60;;
18072;SDS011;9161;47.348;9.648;2022-07-29T18:20:50;7.93;;;5.07;;
18072;SDS011;9161;47.348;9.648;2022-07-29T18:25:36;4.55;;;3.35;;
18072;SDS011;9161;47.348;9.648;2022-07-29T18:30:20;5.68;;;3.55;;
18072;SDS011;9161;47.348;9.648;2022-07-29T18:35:04;18.80;;;8.40;;
18072;SDS011;9161;47.348;9.648;2022-07-29T18:39:48;13.73;;;8.93;;
18072;SDS011;9161;47.348;9.648;2022-07-29T18:44:34;12.55;;;8.75;;
18072;SDS011;9161;47.348;9.648;2022-07-29T18:49:24;10.23;;;7.07;;
18072;SDS011;9161;47.348;9.648;2022-07-29T18:54:08;7.03;;;4.63;;
18072;SDS011;9161;47.348;9.648;2022-07-29T18:58:52;5.18;;;3.70;;
18072;SDS011;9161;47.348;9.648;2022-07-29T19:03:37;4.72;;;3.67;;
18072;SDS011;9161;47.348;9.648;2022-07-29T19:08:21;4.43;;;3.30;;
18072;SDS011;9161;47.348;9.648;2022-07-29T19:13:05;4.75;;;3.80;;
18072;SDS011;9161;47.348;9.648;2022-07-29T19:17:53;8.23;;;4.72;;
18072;SDS011;9161;47.348;9.648;2022-07-29T19:22:43;5.83;;;3.93;;
18072;SDS011;9161;47.348;9.648;2022-07-29T19:27:27;5.03;;;3.53;;
18072;SDS011;9161;47.348;9.648;2022-07-29T19:32:10;6.83;;;3.87;;
18072;SDS011;9161;47.348;9.648;2022-07-29T19:37:05;3.93;;;3.00;;
18072;SDS011;9161;47.348;9.648;2022-07-29T19:41:50;3.90;;;3.13;;
18072;SDS011;9161;47.348;9.648;2022-07-29T19:46:38;4.57;;;2.77;;
18072;SDS011;9161;47.348;9.648;2022-07-29T19:51:22;5.07;;;2.97;;
18072;SDS011;9161;47.348;9.648;2022-07-29T19:56:06;4.65;;;3.10;;
18072;SDS011;9161;47.348;9.648;2022-07-29T20:00:51;6.10;;;4.13;;
18072;SDS011;9161;47.348;9.648;2022-07-29T20:05:35;4.63;;;3.37;;
18072;SDS011;9161;47.348;9.648;2022-07-29T20:10:20;7.60;;;5.53;;
18072;SDS011;9161;47.348;9.648;2022-07-29T20:15:08;4.73;;;2.93;;
18072;SDS011;9161;47.348;9.648;2022-07-29T20:19:58;5.03;;;3.17;;
18072;SDS011;9161;47.348;9.648;2022-07-29T20:24:43;10.47;;;3.20;;
18072;SDS011;9161;47.348;9.648;2022-07-29T20:29:27;2.57;;;2.27;;
18072;SDS011;9161;47.348;9.648;2022-07-29T20:34:11;5.57;;;3.33;;
18072;SDS011;9161;47.348;9.648;2022-07-29T20:38:57;3.83;;;2.17;;
18072;SDS011;9161;47.348;9.648;2022-07-29T20:43:41;3.93;;;2.90;;
18072;SDS011;9161;47.348;9.648;2022-07-29T20:48:26;3.60;;;2.97;;
18072;SDS011;9161;47.348;9.648;2022-07-29T20:53:09;4.40;;;2.90;;
18072;SDS011;9161;47.348;9.648;2022-07-29T20:57:55;2.90;;;2.10;;
18072;SDS011;9161;47.348;9.648;2022-07-29T21:02:41;5.13;;;1.80;;
18072;SDS011;9161;47.348;9.648;2022-07-29T21:07:24;3.70;;;1.90;;
18072;SDS011;9161;47.348;9.648;2022-07-29T21:12:08;3.07;;;1.70;;
18072;SDS011;9161;47.348;9.648;2022-07-29T21:16:55;3.73;;;2.00;;
18072;SDS011;9161;47.348;9.648;2022-07-29T21:21:40;4.20;;;1.80;;
18072;SDS011;9161;47.348;9.648;2022-07-29T21:26:24;2.90;;;2.10;;
18072;SDS011;9161;47.348;9.648;2022-07-29T21:31:09;5.90;;;2.20;;
18072;SDS011;9161;47.348;9.648;2022-07-29T21:35:59;2.70;;;1.60;;
18072;SDS011;9161;47.348;9.648;2022-07-29T21:41:04;2.67;;;2.07;;
18072;SDS011;9161;47.348;9.648;2022-07-29T21:45:47;3.93;;;2.30;;
18072;SDS011;9161;47.348;9.648;2022-07-29T21:50:32;4.27;;;2.07;;
18072;SDS011;9161;47.348;9.648;2022-07-29T21:55:17;3.10;;;2.40;;
18072;SDS011;9161;47.348;9.648;2022-07-29T22:00:03;5.10;;;2.30;;
18072;SDS011;9161;47.348;9.648;2022-07-29T22:04:48;4.07;;;2.33;;
18072;SDS011;9161;47.348;9.648;2022-07-29T22:09:32;3.10;;;1.60;;
18072;SDS011;9161;47.348;9.648;2022-07-29T22:14:17;4.87;;;1.70;;
18072;SDS011;9161;47.348;9.648;2022-07-29T22:19:00;3.43;;;1.87;;
18072;SDS011;9161;47.348;9.648;2022-07-29T22:23:45;3.27;;;1.93;;
18072;SDS011;9161;47.348;9.648;2022-07-29T22:28:28;4.30;;;1.83;;
18072;SDS011;9161;47.348;9.648;2022-07-29T22:33:13;2.13;;;1.63;;
18072;SDS011;9161;47.348;9.648;2022-07-29T22:37:58;2.17;;;1.43;;
18072;SDS011;9161;47.348;9.648;2022-07-29T22:42:42;3.33;;;1.60;;
18072;SDS011;9161;47.348;9.648;2022-07-29T22:47:25;2.90;;;1.53;;
18072;SDS011;9161;47.348;9.648;2022-07-29T22:52:30;4.30;;;1.90;;
18072;SDS011;9161;47.348;9.648;2022-07-29T22:57:13;2.73;;;1.87;;
18072;SDS011;9161;47.348;9.648;2022-07-29T23:01:57;2.63;;;1.87;;
18072;SDS011;9161;47.348;9.648;2022-07-29T23:06:41;2.40;;;1.93;;
18072;SDS011;9161;47.348;9.648;2022-07-29T23:11:26;2.93;;;1.83;;
18072;SDS011;9161;47.348;9.648;2022-07-29T23:16:09;2.70;;;1.73;;
18072;SDS011;9161;47.348;9.648;2022-07-29T23:20:53;3.87;;;1.90;;
18072;SDS011;9161;47.348;9.648;2022-07-29T23:25:37;2.07;;;1.30;;
18072;SDS011;9161;47.348;9.648;2022-07-29T23:30:22;3.33;;;1.93;;
18072;SDS011;9161;47.348;9.648;2022-07-29T23:35:07;1.87;;;1.70;;
18072;SDS011;9161;47.348;9.648;2022-07-29T23:39:51;3.17;;;1.50;;
18072;SDS011;9161;47.348;9.648;2022-07-29T23:44:35;3.77;;;1.77;;
18072;SDS011;9161;47.348;9.648;2022-07-29T23:49:20;3.63;;;1.43;;
18072;SDS011;9161;47.348;9.648;2022-07-29T23:54:04;2.83;;;1.83;;
18072;SDS011;9161;47.348;9.648;2022-07-29T23:58:48;2.47;;;1.80;;
